Time;durP1;ratioP1;P1;durP2;ratioP2;P2;SDS_P1;SDS_P2;PMS_P1;PMS_P2;Temp;Humidity;BMP_temperature;BMP_pressure;BME280_temperature;BME280_humidity;BME280_pressure;Samples;Min_cycle;Max_cycle;Signal;HPM_P1;HPM_P2
2023/07/23 00:00:27;;;;;;;6.18;3.90;;;18.20;99.90;;;;;;5037816;28;20049;-56
2023/07/23 00:02:53;;;;;;;11.93;4.07;;;18.20;99.90;;;;;;5039435;28;20037;-54
2023/07/23 00:05:20;;;;;;;8.90;3.83;;;18.30;99.90;;;;;;5043399;28;20087;-54
2023/07/23 00:07:45;;;;;;;6.70;3.67;;;18.20;99.90;;;;;;5041871;28;20037;-54
2023/07/23 00:10:11;;;;;;;6.20;3.58;;;18.10;99.90;;;;;;5039920;28;20117;-56
2023/07/23 00:12:37;;;;;;;8.55;4.07;;;18.10;99.90;;;;;;5037792;28;20033;-56
2023/07/23 00:15:03;;;;;;;6.07;4.00;;;18.10;99.90;;;;;;5038108;28;20038;-56
2023/07/23 00:17:29;;;;;;;6.38;3.50;;;18.00;99.90;;;;;;5036690;28;20509;-55
2023/07/23 00:19:55;;;;;;;7.05;4.13;;;18.00;99.90;;;;;;5035989;28;20041;-56
2023/07/23 00:22:20;;;;;;;6.43;3.72;;;18.00;99.90;;;;;;5042894;28;20112;-55
2023/07/23 00:24:46;;;;;;;5.97;3.65;;;18.00;99.90;;;;;;5040541;28;20037;-56
2023/07/23 00:27:13;;;;;;;7.35;3.63;;;17.90;99.90;;;;;;5040840;28;20033;-55
2023/07/23 00:29:42;;;;;;;9.25;3.80;;;18.00;99.90;;;;;;5037605;28;20334;-56
2023/07/23 00:32:08;;;;;;;5.63;3.75;;;18.00;99.90;;;;;;5035155;28;20030;-55
2023/07/23 00:34:34;;;;;;;7.55;3.95;;;18.10;99.90;;;;;;5037367;28;20029;-54
2023/07/23 00:37:00;;;;;;;13.18;4.20;;;18.10;99.90;;;;;;5032901;28;20446;-53
2023/07/23 00:39:26;;;;;;;5.65;3.85;;;18.00;99.90;;;;;;5035592;28;20143;-55
2023/07/23 00:41:52;;;;;;;8.02;4.43;;;18.00;99.90;;;;;;5038999;28;20428;-54
2023/07/23 00:44:18;;;;;;;7.47;3.80;;;17.90;99.90;;;;;;5042078;28;20021;-56
2023/07/23 00:46:44;;;;;;;6.20;3.42;;;18.00;99.90;;;;;;5037412;28;20033;-54
2023/07/23 00:49:11;;;;;;;8.43;4.10;;;18.10;99.90;;;;;;5036085;28;20139;-55
2023/07/23 00:51:38;;;;;;;6.20;3.90;;;18.00;99.90;;;;;;5033969;28;20033;-56
2023/07/23 00:54:04;;;;;;;0.00;0.00;;;18.00;99.90;;;;;;5040541;28;20507;-53
2023/07/23 00:56:30;;;;;;;0.00;0.00;;;17.90;99.90;;;;;;5033904;28;20053;-55
2023/07/23 00:58:57;;;;;;;0.00;0.00;;;17.90;99.90;;;;;;5039688;28;20148;-56
2023/07/23 01:01:22;;;;;;;0.00;0.00;;;17.90;99.90;;;;;;5035644;28;20535;-56
2023/07/23 01:03:50;;;;;;;0.00;0.00;;;17.90;99.90;;;;;;5041086;28;20061;-54
2023/07/23 01:06:17;;;;;;;0.00;0.00;;;18.00;99.90;;;;;;5040057;28;20029;-54
2023/07/23 01:08:44;;;;;;;1.83;1.35;;;17.90;99.90;;;;;;5033997;28;20701;-54
2023/07/23 01:11:10;;;;;;;0.00;0.00;;;18.10;99.90;;;;;;5041490;28;20069;-56
2023/07/23 01:13:38;;;;;;;8.20;5.03;;;18.10;99.90;;;;;;5046145;28;20107;-55
2023/07/23 01:16:07;;;;;;;5.25;3.60;;;17.90;99.90;;;;;;5038547;28;20041;-56
2023/07/23 01:18:40;;;;;;;4.20;3.42;;;17.90;99.90;;;;;;5034493;28;20036;-55
2023/07/23 01:21:06;;;;;;;3.30;2.60;;;17.80;99.90;;;;;;5036871;28;20412;-55
2023/07/23 01:23:32;;;;;;;1.73;1.60;;;17.90;99.90;;;;;;5034121;28;20044;-56
2023/07/23 01:25:58;;;;;;;5.20;3.00;;;17.80;99.90;;;;;;5039908;28;20102;-55
2023/07/23 01:28:24;;;;;;;6.20;2.90;;;17.90;99.90;;;;;;5042782;28;20708;-55
2023/07/23 01:30:50;;;;;;;6.43;2.85;;;18.00;99.90;;;;;;5040676;28;20710;-55
2023/07/23 01:33:16;;;;;;;8.35;3.25;;;18.00;99.90;;;;;;5037410;28;20397;-54
2023/07/23 01:35:44;;;;;;;6.15;2.92;;;18.00;99.90;;;;;;5039787;28;20087;-56
2023/07/23 01:38:11;;;;;;;4.53;3.45;;;18.00;99.90;;;;;;5033433;28;20505;-56
2023/07/23 01:40:37;;;;;;;7.00;2.78;;;17.80;99.90;;;;;;5037498;28;20069;-55
2023/07/23 01:43:03;;;;;;;5.78;3.55;;;18.00;99.90;;;;;;5041438;28;20091;-56
2023/07/23 01:45:29;;;;;;;6.63;3.53;;;18.00;99.90;;;;;;5034227;28;20041;-55
2023/07/23 01:47:55;;;;;;;8.88;3.35;;;17.90;99.90;;;;;;5042703;28;20636;-55
2023/07/23 01:50:21;;;;;;;4.72;2.70;;;18.00;99.90;;;;;;5034715;28;20037;-54
2023/07/23 01:52:47;;;;;;;3.83;2.75;;;17.90;99.90;;;;;;5035919;28;20032;-55
2023/07/23 01:55:13;;;;;;;1.52;1.40;;;18.00;99.90;;;;;;5032433;28;20814;-56
2023/07/23 01:57:38;;;;;;;2.80;1.40;;;17.90;99.90;;;;;;5038855;28;20025;-54
2023/07/23 02:00:05;;;;;;;3.13;1.17;;;17.90;99.90;;;;;;5035964;28;20151;-53
2023/07/23 02:02:31;;;;;;;1.00;0.70;;;18.00;99.90;;;;;;5038129;28;20528;-55
2023/07/23 02:04:56;;;;;;;1.08;0.60;;;18.00;99.90;;;;;;5039386;28;20032;-56
2023/07/23 02:07:22;;;;;;;1.23;0.40;;;18.00;99.90;;;;;;5036215;28;20377;-55
2023/07/23 02:09:51;;;;;;;0.52;0.35;;;18.00;99.90;;;;;;5042483;28;20029;-56
2023/07/23 02:12:17;;;;;;;0.10;0.10;;;18.00;99.90;;;;;;5039826;28;20029;-54
2023/07/23 02:14:43;;;;;;;0.00;0.00;;;18.10;99.90;;;;;;5035316;28;20044;-56
2023/07/23 02:17:09;;;;;;;0.00;0.00;;;18.10;99.90;;;;;;5040715;28;20029;-56
2023/07/23 02:19:36;;;;;;;0.00;0.00;;;18.10;99.90;;;;;;5040035;28;20086;-54
2023/07/23 02:22:02;;;;;;;0.00;0.00;;;18.00;99.90;;;;;;5041278;28;20534;-56
2023/07/23 02:24:28;;;;;;;0.35;0.28;;;18.20;99.90;;;;;;5034133;28;20032;-54
2023/07/23 02:26:53;;;;;;;0.00;0.00;;;18.10;99.90;;;;;;5034855;28;20125;-56
2023/07/23 02:29:19;;;;;;;0.00;0.00;;;18.00;99.90;;;;;;5038267;28;20388;-53
2023/07/23 02:31:45;;;;;;;0.00;0.00;;;18.10;99.90;;;;;;5033096;28;20731;-54
2023/07/23 02:34:10;;;;;;;0.00;0.00;;;18.10;99.90;;;;;;5034600;28;20021;-56
2023/07/23 02:36:36;;;;;;;0.10;0.10;;;18.00;99.90;;;;;;5037788;28;20037;-55
2023/07/23 02:39:02;;;;;;;0.13;0.08;;;18.10;99.90;;;;;;5036090;28;20664;-55
2023/07/23 02:41:28;;;;;;;0.10;0.10;;;18.10;99.90;;;;;;5039586;28;20397;-54
2023/07/23 02:43:54;;;;;;;0.80;0.20;;;18.20;99.90;;;;;;5040494;28;20029;-54
2023/07/23 02:46:19;;;;;;;0.57;0.45;;;18.10;99.90;;;;;;5037777;28;20033;-55
2023/07/23 02:48:45;;;;;;;0.00;0.00;;;18.10;99.90;;;;;;5039699;28;20075;-54
2023/07/23 02:51:11;;;;;;;0.00;0.00;;;18.20;99.90;;;;;;5035214;28;20080;-56
2023/07/23 02:53:36;;;;;;;0.00;0.00;;;18.20;99.90;;;;;;5037017;28;20489;-56
2023/07/23 02:56:02;;;;;;;0.00;0.00;;;18.20;99.90;;;;;;5038132;28;20034;-55
2023/07/23 02:58:27;;;;;;;0.00;0.00;;;18.20;99.90;;;;;;5032532;28;20037;-54
2023/07/23 03:00:56;;;;;;;0.00;0.00;;;18.30;99.90;;;;;;5040453;28;20407;-53
2023/07/23 03:03:21;;;;;;;0.00;0.00;;;18.30;99.90;;;;;;5039423;28;20044;-55
2023/07/23 03:05:47;;;;;;;0.00;0.00;;;18.30;99.90;;;;;;5038083;28;20029;-55
2023/07/23 03:08:13;;;;;;;0.00;0.00;;;18.30;99.90;;;;;;5038194;28;20045;-56
2023/07/23 03:10:42;;;;;;;0.00;0.00;;;18.30;99.90;;;;;;5036700;28;20025;-56
2023/07/23 03:13:08;;;;;;;0.00;0.00;;;18.20;99.90;;;;;;5036810;28;20574;-56
2023/07/23 03:15:34;;;;;;;0.00;0.00;;;18.20;99.90;;;;;;5038985;28;20067;-55
2023/07/23 03:18:00;;;;;;;0.00;0.00;;;18.30;99.90;;;;;;5041926;28;20724;-54
2023/07/23 03:20:27;;;;;;;0.00;0.00;;;18.40;99.90;;;;;;5038122;28;20128;-55
2023/07/23 03:22:52;;;;;;;0.00;0.00;;;18.40;99.90;;;;;;5038380;28;20035;-56
2023/07/23 03:25:18;;;;;;;0.00;0.00;;;18.50;99.90;;;;;;5044683;28;20033;-54
2023/07/23 03:27:44;;;;;;;0.00;0.00;;;18.40;99.90;;;;;;5041198;28;20041;-56
2023/07/23 03:30:10;;;;;;;0.00;0.00;;;18.20;99.90;;;;;;5041925;28;20024;-55
2023/07/23 03:32:36;;;;;;;0.00;0.00;;;18.30;99.90;;;;;;5039482;28;20092;-55
2023/07/23 03:35:02;;;;;;;0.00;0.00;;;18.40;99.90;;;;;;5036572;28;20028;-55
2023/07/23 03:37:28;;;;;;;0.00;0.00;;;18.40;99.90;;;;;;5042319;28;20045;-54
2023/07/23 03:39:53;;;;;;;0.00;0.00;;;18.30;99.90;;;;;;5040853;28;20064;-55
2023/07/23 03:42:19;;;;;;;0.00;0.00;;;18.30;99.90;;;;;;5033274;28;20128;-56
2023/07/23 03:44:45;;;;;;;0.00;0.00;;;18.20;99.90;;;;;;5038453;28;20051;-54
2023/07/23 03:47:15;;;;;;;0.00;0.00;;;18.30;99.90;;;;;;5037238;28;20037;-56
2023/07/23 03:49:42;;;;;;;0.00;0.00;;;18.40;99.90;;;;;;5032516;28;20022;-55
2023/07/23 03:52:08;;;;;;;0.00;0.00;;;18.40;99.90;;;;;;5039621;28;20029;-55
2023/07/23 03:54:34;;;;;;;0.00;0.00;;;18.30;99.90;;;;;;5041495;28;20048;-55
2023/07/23 03:57:01;;;;;;;0.00;0.00;;;18.30;99.90;;;;;;5038994;28;20432;-56
2023/07/23 03:59:37;;;;;;;0.00;0.00;;;18.30;99.90;;;;;;5034260;28;21028;-56
2023/07/23 04:02:03;;;;;;;0.00;0.00;;;18.30;99.90;;;;;;5037906;28;20051;-55
2023/07/23 04:04:29;;;;;;;0.10;0.10;;;18.30;99.90;;;;;;5038544;28;20349;-57
2023/07/23 04:06:54;;;;;;;0.00;0.00;;;18.20;99.90;;;;;;5037641;28;20096;-54
2023/07/23 04:09:20;;;;;;;0.00;0.00;;;18.30;99.90;;;;;;5037740;28;20035;-53
2023/07/23 04:11:46;;;;;;;0.00;0.00;;;18.30;99.90;;;;;;5041968;28;20128;-56
2023/07/23 04:14:12;;;;;;;0.38;0.38;;;18.30;99.90;;;;;;5036569;28;20037;-56
2023/07/23 04:16:37;;;;;;;0.10;0.05;;;18.20;99.90;;;;;;5036558;28;20038;-56
2023/07/23 04:19:03;;;;;;;2.00;1.80;;;18.30;99.90;;;;;;5035219;28;20052;-56
2023/07/23 04:21:29;;;;;;;4.05;1.88;;;18.30;99.90;;;;;;5040121;28;20045;-55
2023/07/23 04:23:58;;;;;;;2.15;1.30;;;18.30;99.90;;;;;;5042014;28;20397;-56
2023/07/23 04:26:27;;;;;;;0.00;0.00;;;18.30;99.90;;;;;;5036282;28;20041;-55
2023/07/23 04:28:53;;;;;;;0.15;0.15;;;18.40;99.90;;;;;;5039730;28;20041;-55
2023/07/23 04:31:19;;;;;;;0.15;0.03;;;18.30;99.90;;;;;;5039956;28;20581;-55
2023/07/23 04:33:46;;;;;;;0.00;0.00;;;18.30;99.90;;;;;;5040059;28;20496;-55
2023/07/23 04:36:13;;;;;;;0.00;0.00;;;18.30;99.90;;;;;;5034964;28;20083;-55
2023/07/23 04:38:39;;;;;;;0.00;0.00;;;18.30;99.90;;;;;;5039293;28;20032;-56
2023/07/23 04:41:05;;;;;;;0.00;0.00;;;18.30;99.90;;;;;;5041306;28;20405;-56
2023/07/23 04:43:32;;;;;;;0.00;0.00;;;18.40;99.90;;;;;;5037639;28;20033;-54
2023/07/23 04:45:58;;;;;;;0.00;0.00;;;18.40;99.90;;;;;;5037721;28;20151;-56
2023/07/23 04:48:24;;;;;;;0.00;0.00;;;18.40;99.90;;;;;;5037903;28;20135;-56
2023/07/23 04:51:01;;;;;;;0.00;0.00;;;18.40;99.90;;;;;;5038756;28;20120;-55
2023/07/23 04:53:27;;;;;;;0.00;0.00;;;18.50;99.90;;;;;;5029128;28;20052;-56
2023/07/23 04:55:54;;;;;;;0.00;0.00;;;18.50;99.90;;;;;;5043281;28;20029;-55
2023/07/23 04:58:21;;;;;;;0.00;0.00;;;18.50;99.90;;;;;;5037794;28;20029;-55
2023/07/23 05:00:47;;;;;;;0.00;0.00;;;18.70;99.90;;;;;;5035364;28;20029;-56
2023/07/23 05:03:12;;;;;;;0.00;0.00;;;18.70;99.90;;;;;;5042397;28;20098;-56
2023/07/23 05:05:49;;;;;;;0.10;0.10;;;18.80;99.90;;;;;;5041798;28;20037;-57
2023/07/23 05:08:15;;;;;;;0.00;0.00;;;18.80;99.90;;;;;;5040393;28;20450;-55
2023/07/23 05:10:41;;;;;;;0.00;0.00;;;18.90;99.90;;;;;;5037690;28;20035;-55
2023/07/23 05:13:07;;;;;;;0.00;0.00;;;18.90;99.90;;;;;;5037138;28;20665;-56
2023/07/23 05:15:32;;;;;;;0.00;0.00;;;19.00;99.90;;;;;;5040651;28;20041;-55
2023/07/23 05:17:58;;;;;;;0.00;0.00;;;19.00;99.90;;;;;;5042201;28;20128;-56
2023/07/23 05:20:24;;;;;;;0.00;0.00;;;19.00;99.90;;;;;;5030370;28;20055;-55
2023/07/23 05:22:50;;;;;;;0.00;0.00;;;19.10;99.90;;;;;;5039384;28;20029;-54
2023/07/23 05:25:16;;;;;;;0.00;0.00;;;19.10;99.90;;;;;;5037847;28;20090;-55
2023/07/23 05:27:41;;;;;;;0.00;0.00;;;19.10;99.90;;;;;;5041528;28;20041;-55
2023/07/23 05:30:07;;;;;;;0.00;0.00;;;19.00;99.90;;;;;;5029165;28;20033;-55
2023/07/23 05:32:33;;;;;;;0.00;0.00;;;19.10;99.90;;;;;;5041675;28;20055;-56
2023/07/23 05:34:59;;;;;;;0.00;0.00;;;19.10;99.90;;;;;;5041046;28;20029;-54
2023/07/23 05:37:25;;;;;;;0.00;0.00;;;19.20;99.90;;;;;;5038073;28;20029;-55
2023/07/23 05:39:54;;;;;;;0.00;0.00;;;19.30;99.90;;;;;;5037174;28;20040;-56
2023/07/23 05:42:20;;;;;;;0.00;0.00;;;19.30;99.90;;;;;;5038520;28;20252;-56
2023/07/23 05:44:46;;;;;;;0.00;0.00;;;19.30;99.90;;;;;;5037772;28;20039;-56
2023/07/23 05:47:12;;;;;;;0.00;0.00;;;19.40;99.90;;;;;;5037143;28;20289;-56
2023/07/23 05:49:37;;;;;;;0.00;0.00;;;19.40;99.90;;;;;;5040799;28;20033;-57
2023/07/23 05:52:04;;;;;;;0.00;0.00;;;19.50;99.90;;;;;;5044250;28;20444;-53
2023/07/23 05:54:29;;;;;;;0.00;0.00;;;19.50;99.90;;;;;;5035770;28;20032;-53
2023/07/23 05:56:55;;;;;;;0.00;0.00;;;19.60;99.90;;;;;;5038492;28;20533;-55
2023/07/23 05:59:20;;;;;;;0.00;0.00;;;19.50;99.90;;;;;;5034592;28;20021;-54
2023/07/23 06:01:46;;;;;;;0.00;0.00;;;19.60;99.90;;;;;;5038871;28;20395;-55
2023/07/23 06:04:13;;;;;;;0.00;0.00;;;19.60;99.90;;;;;;5039597;28;20118;-56
2023/07/23 06:06:38;;;;;;;0.00;0.00;;;19.60;99.90;;;;;;5035995;28;20108;-55
2023/07/23 06:09:04;;;;;;;0.00;0.00;;;19.60;99.90;;;;;;5041399;28;20147;-56
2023/07/23 06:11:30;;;;;;;0.00;0.00;;;19.50;99.90;;;;;;5041385;28;20037;-57
2023/07/23 06:13:57;;;;;;;0.00;0.00;;;19.50;99.90;;;;;;5038479;28;20515;-55
2023/07/23 06:16:23;;;;;;;0.00;0.00;;;19.50;99.90;;;;;;5034975;28;20501;-53
2023/07/23 06:18:48;;;;;;;0.00;0.00;;;19.50;99.90;;;;;;5028459;28;20033;-57
2023/07/23 06:21:14;;;;;;;0.00;0.00;;;19.60;99.90;;;;;;5038598;28;20041;-53
2023/07/23 06:23:39;;;;;;;0.00;0.00;;;19.60;99.90;;;;;;5037495;28;20025;-53
2023/07/23 06:26:05;;;;;;;0.00;0.00;;;19.50;99.90;;;;;;5037971;28;20392;-53
2023/07/23 06:28:31;;;;;;;0.00;0.00;;;19.60;99.90;;;;;;5032976;28;20048;-60
2023/07/23 06:30:57;;;;;;;0.00;0.00;;;19.50;99.90;;;;;;5040452;28;20028;-55
2023/07/23 06:33:22;;;;;;;0.00;0.00;;;19.50;99.90;;;;;;5036201;28;20037;-54
2023/07/23 06:35:48;;;;;;;0.00;0.00;;;19.50;99.90;;;;;;5039203;28;20033;-55
2023/07/23 06:38:15;;;;;;;0.00;0.00;;;19.50;99.90;;;;;;5041666;28;20029;-54
2023/07/23 06:40:55;;;;;;;0.00;0.00;;;19.60;99.90;;;;;;5032412;28;20029;-56
2023/07/23 06:43:21;;;;;;;0.00;0.00;;;19.70;99.90;;;;;;5042031;28;20029;-55
2023/07/23 06:45:48;;;;;;;0.00;0.00;;;19.60;99.90;;;;;;5040793;28;20144;-55
2023/07/23 06:48:15;;;;;;;0.00;0.00;;;19.70;99.90;;;;;;5033166;28;20049;-54
2023/07/23 06:50:41;;;;;;;0.00;0.00;;;19.70;99.90;;;;;;5037860;28;20124;-55
2023/07/23 06:53:07;;;;;;;0.00;0.00;;;19.70;99.90;;;;;;5037532;28;20033;-52
2023/07/23 06:55:56;;;;;;;0.00;0.00;;;19.60;99.90;;;;;;5032769;28;20330;-55
2023/07/23 06:58:21;;;;;;;0.00;0.00;;;19.70;99.90;;;;;;5036115;28;20041;-55
2023/07/23 07:00:47;;;;;;;0.00;0.00;;;19.80;99.90;;;;;;5041082;28;20109;-55
2023/07/23 07:03:13;;;;;;;0.00;0.00;;;19.90;99.90;;;;;;5041746;28;20102;-54
2023/07/23 07:05:38;;;;;;;0.00;0.00;;;19.80;99.90;;;;;;5033731;28;20041;-56
2023/07/23 07:08:04;;;;;;;0.00;0.00;;;19.90;99.90;;;;;;5043318;28;20045;-56
2023/07/23 07:10:30;;;;;;;0.00;0.00;;;19.80;99.90;;;;;;5040289;28;20040;-55
2023/07/23 07:12:55;;;;;;;0.00;0.00;;;19.80;99.90;;;;;;5042052;28;20040;-55
2023/07/23 07:15:21;;;;;;;0.00;0.00;;;19.60;99.90;;;;;;5039272;28;20036;-56
2023/07/23 07:17:46;;;;;;;0.00;0.00;;;19.50;99.90;;;;;;5043528;28;20029;-55
2023/07/23 07:20:12;;;;;;;0.00;0.00;;;19.40;99.90;;;;;;5042881;28;20033;-55
2023/07/23 07:22:38;;;;;;;0.00;0.00;;;19.30;99.90;;;;;;5033662;28;20037;-56
2023/07/23 07:25:03;;;;;;;0.00;0.00;;;19.20;99.90;;;;;;5032600;28;20238;-54
2023/07/23 07:27:29;;;;;;;0.00;0.00;;;19.10;99.90;;;;;;5043227;28;20052;-54
2023/07/23 07:29:55;;;;;;;0.00;0.00;;;19.20;99.90;;;;;;5044114;28;20033;-55
2023/07/23 07:32:20;;;;;;;0.00;0.00;;;19.10;99.90;;;;;;5042449;28;20106;-54
2023/07/23 07:34:46;;;;;;;0.00;0.00;;;19.10;99.90;;;;;;5039591;28;20032;-56
2023/07/23 07:37:11;;;;;;;0.00;0.00;;;19.10;99.90;;;;;;5040205;28;20076;-52
2023/07/23 07:39:37;;;;;;;0.00;0.00;;;19.20;99.90;;;;;;5040436;28;20036;-55
2023/07/23 07:42:03;;;;;;;0.00;0.00;;;19.20;99.90;;;;;;5042324;28;20072;-51
2023/07/23 07:44:29;;;;;;;0.00;0.00;;;19.20;99.90;;;;;;5040906;28;20044;-55
2023/07/23 07:46:54;;;;;;;0.00;0.00;;;19.10;99.90;;;;;;5041949;28;20064;-54
2023/07/23 07:49:20;;;;;;;0.00;0.00;;;19.10;99.90;;;;;;5041853;28;20029;-55
2023/07/23 07:51:47;;;;;;;0.00;0.00;;;19.10;99.90;;;;;;5032416;28;20029;-51
2023/07/23 07:54:13;;;;;;;0.10;0.10;;;19.10;99.90;;;;;;5036071;28;20056;-53
2023/07/23 07:56:39;;;;;;;0.10;0.10;;;19.00;99.90;;;;;;5032689;28;20137;-53
2023/07/23 07:59:06;;;;;;;0.82;0.30;;;19.00;99.90;;;;;;5037893;28;20526;-58
2023/07/23 08:01:32;;;;;;;0.20;0.20;;;19.00;99.90;;;;;;5041684;28;20044;-56
2023/07/23 08:03:57;;;;;;;0.30;0.30;;;19.20;99.90;;;;;;5043263;28;20033;-52
2023/07/23 08:06:24;;;;;;;0.98;0.50;;;19.20;99.90;;;;;;5041148;28;20188;-56
2023/07/23 08:08:51;;;;;;;0.30;0.30;;;19.20;99.90;;;;;;5044245;28;20387;-55
2023/07/23 08:11:17;;;;;;;0.00;0.00;;;19.20;99.90;;;;;;5043163;28;20098;-54
2023/07/23 08:13:43;;;;;;;0.65;0.22;;;19.20;99.90;;;;;;5040707;28;20037;-54
2023/07/23 08:16:12;;;;;;;0.10;0.10;;;19.30;99.90;;;;;;5029935;28;20044;-57
2023/07/23 08:18:38;;;;;;;0.32;0.32;;;19.40;99.90;;;;;;5043009;28;20114;-54
2023/07/23 08:21:04;;;;;;;0.75;0.50;;;19.40;99.90;;;;;;5037359;28;20906;-53
2023/07/23 08:23:30;;;;;;;1.20;1.00;;;19.20;99.90;;;;;;5042397;28;20040;-55
2023/07/23 08:25:58;;;;;;;1.73;0.98;;;19.20;99.90;;;;;;5037649;28;20028;-55
2023/07/23 08:28:29;;;;;;;1.25;0.82;;;19.00;99.90;;;;;;5038220;28;20056;-54
2023/07/23 08:30:59;;;;;;;1.00;0.90;;;18.90;99.90;;;;;;5036858;28;20036;-53
2023/07/23 08:33:28;;;;;;;1.05;0.80;;;18.80;99.90;;;;;;5043944;28;20131;-53
2023/07/23 08:35:57;;;;;;;1.02;0.55;;;18.80;99.90;;;;;;5035175;28;20461;-54
2023/07/23 08:38:24;;;;;;;0.82;0.80;;;18.90;99.90;;;;;;5038434;28;20503;-54
2023/07/23 08:41:02;;;;;;;0.85;0.80;;;18.80;99.90;;;;;;5042748;28;20129;-54
2023/07/23 08:43:52;;;;;;;1.05;0.95;;;18.90;99.90;;;;;;5036077;28;20576;-54
2023/07/23 08:46:22;;;;;;;0.17;0.17;;;18.80;99.90;;;;;;5041328;28;20036;-55
2023/07/23 08:49:04;;;;;;;1.15;0.80;;;18.90;99.90;;;;;;5040964;28;20044;-55
2023/07/23 08:51:50;;;;;;;1.43;0.80;;;18.90;99.90;;;;;;5037076;28;20032;-52
2023/07/23 08:54:19;;;;;;;1.10;1.00;;;19.10;99.90;;;;;;5036233;28;20812;-51
2023/07/23 08:56:45;;;;;;;1.33;1.00;;;19.00;99.90;;;;;;5037787;28;20403;-53
2023/07/23 08:59:11;;;;;;;1.00;0.90;;;18.90;99.90;;;;;;5043511;28;20132;-54
2023/07/23 09:01:41;;;;;;;0.80;0.80;;;19.00;99.90;;;;;;5043959;28;20037;-56
2023/07/23 09:04:13;;;;;;;0.70;0.70;;;19.00;99.90;;;;;;5041418;28;20078;-54
2023/07/23 09:06:42;;;;;;;0.88;0.70;;;19.00;99.90;;;;;;5040736;28;20494;-54
2023/07/23 09:09:10;;;;;;;1.95;0.70;;;19.00;99.90;;;;;;5036733;28;20041;-56
2023/07/23 09:11:36;;;;;;;0.30;0.30;;;19.10;99.90;;;;;;5033555;28;21949;-57
2023/07/23 09:14:10;;;;;;;1.00;0.52;;;19.10;99.90;;;;;;5035292;28;20029;-54
2023/07/23 09:16:38;;;;;;;0.80;0.60;;;19.10;99.90;;;;;;5035166;28;20041;-55
2023/07/23 09:19:04;;;;;;;0.50;0.50;;;19.20;99.90;;;;;;5035198;28;20404;-56
2023/07/23 09:21:30;;;;;;;0.65;0.65;;;19.20;99.90;;;;;;5035774;28;20053;-54
2023/07/23 09:24:02;;;;;;;0.00;0.00;;;19.20;99.90;;;;;;5038923;28;20664;-56
2023/07/23 09:26:28;;;;;;;0.00;0.00;;;19.00;99.90;;;;;;5038761;28;20393;-54
2023/07/23 09:28:57;;;;;;;0.00;0.00;;;19.10;99.90;;;;;;5037368;28;20044;-57
2023/07/23 09:31:29;;;;;;;0.00;0.00;;;19.10;99.90;;;;;;5038568;28;20053;-56
2023/07/23 09:33:59;;;;;;;0.00;0.00;;;19.30;99.90;;;;;;5035969;28;20407;-54
2023/07/23 09:36:26;;;;;;;0.00;0.00;;;19.50;99.90;;;;;;5038471;28;20215;-55
2023/07/23 09:39:05;;;;;;;0.00;0.00;;;19.50;99.90;;;;;;5041249;28;20037;-57
2023/07/23 09:41:33;;;;;;;0.00;0.00;;;19.60;99.90;;;;;;5038893;28;20033;-57
2023/07/23 09:44:01;;;;;;;0.00;0.00;;;19.70;99.90;;;;;;5042107;28;20040;-57
2023/07/23 09:46:27;;;;;;;0.00;0.00;;;19.50;99.90;;;;;;5036151;28;20048;-56
2023/07/23 09:48:53;;;;;;;0.00;0.00;;;19.40;99.90;;;;;;5036634;28;20152;-56
2023/07/23 09:51:19;;;;;;;0.00;0.00;;;19.50;99.90;;;;;;5038642;28;20404;-56
2023/07/23 09:53:47;;;;;;;0.00;0.00;;;19.50;99.90;;;;;;5038109;28;20037;-57
2023/07/23 09:56:15;;;;;;;0.00;0.00;;;19.60;99.90;;;;;;5038439;28;20033;-56
2023/07/23 09:58:43;;;;;;;0.00;0.00;;;19.60;99.90;;;;;;5035212;28;20029;-55
2023/07/23 10:01:09;;;;;;;0.10;0.00;;;19.70;99.90;;;;;;5037306;28;20044;-55
2023/07/23 10:03:36;;;;;;;0.00;0.00;;;19.90;99.90;;;;;;5056536;28;20044;-54
2023/07/23 10:06:03;;;;;;;0.00;0.00;;;20.20;99.90;;;;;;5033192;28;20065;-56
2023/07/23 10:08:31;;;;;;;0.00;0.00;;;20.20;99.90;;;;;;5035325;28;20493;-57
2023/07/23 10:10:56;;;;;;;0.10;0.00;;;20.30;99.90;;;;;;5038364;28;20121;-56
2023/07/23 10:13:22;;;;;;;0.00;0.00;;;20.20;99.90;;;;;;5035802;28;20104;-56
2023/07/23 10:15:50;;;;;;;0.00;0.00;;;20.50;99.90;;;;;;5030260;28;20041;-57
2023/07/23 10:18:17;;;;;;;0.00;0.00;;;20.40;99.90;;;;;;5050764;28;20029;-51
2023/07/23 10:20:45;;;;;;;0.00;0.00;;;20.30;99.90;;;;;;5033182;28;20688;-56
2023/07/23 10:23:11;;;;;;;0.00;0.00;;;20.30;99.90;;;;;;5038002;28;20460;-56
2023/07/23 10:25:37;;;;;;;0.00;0.00;;;20.30;99.90;;;;;;5034847;28;20064;-57
2023/07/23 10:28:05;;;;;;;0.45;0.00;;;20.20;99.90;;;;;;5035977;28;20484;-55
2023/07/23 10:30:33;;;;;;;0.00;0.00;;;20.20;99.90;;;;;;5031331;28;20037;-56
2023/07/23 10:33:11;;;;;;;0.00;0.00;;;20.10;99.90;;;;;;5043199;28;20029;-56
2023/07/23 10:35:52;;;;;;;0.00;0.00;;;20.20;99.90;;;;;;5032893;28;20479;-56
2023/07/23 10:38:31;;;;;;;0.00;0.00;;;20.30;99.90;;;;;;5033333;28;20029;-56
2023/07/23 10:40:58;;;;;;;0.00;0.00;;;20.30;99.90;;;;;;5034690;28;20031;-55
2023/07/23 10:43:24;;;;;;;0.00;0.00;;;20.40;99.90;;;;;;5035401;28;20116;-55
2023/07/23 10:46:03;;;;;;;0.00;0.00;;;20.30;99.90;;;;;;5029599;28;20425;-56
2023/07/23 10:49:02;;;;;;;0.10;0.10;;;20.30;99.90;;;;;;5031330;28;20044;-54
2023/07/23 10:51:28;;;;;;;0.00;0.00;;;20.40;99.90;;;;;;5036169;28;20170;-56
2023/07/23 10:54:02;;;;;;;0.20;0.20;;;20.40;99.90;;;;;;5037094;28;20120;-54
2023/07/23 10:56:31;;;;;;;0.10;0.10;;;20.30;99.90;;;;;;5028596;28;20497;-55
2023/07/23 10:59:09;;;;;;;0.75;0.20;;;20.20;99.90;;;;;;5039563;28;20060;-56
2023/07/23 11:01:39;;;;;;;0.32;0.20;;;20.10;99.90;;;;;;5030965;28;20026;-56
2023/07/23 11:04:24;;;;;;;0.22;0.20;;;20.20;99.90;;;;;;5036538;28;20516;-55
2023/07/23 11:06:57;;;;;;;0.10;0.10;;;20.30;99.90;;;;;;5037459;28;20056;-54
2023/07/23 11:09:29;;;;;;;0.47;0.10;;;20.20;99.90;;;;;;5033132;28;20628;-59
2023/07/23 11:11:56;;;;;;;0.20;0.10;;;20.30;99.90;;;;;;5037551;28;20043;-54
2023/07/23 11:14:29;;;;;;;0.08;0.00;;;20.30;99.90;;;;;;5027317;28;20040;-54
2023/07/23 11:17:00;;;;;;;0.00;0.00;;;20.30;99.90;;;;;;5036833;28;20099;-55
2023/07/23 11:19:27;;;;;;;0.00;0.00;;;20.20;99.90;;;;;;5036548;28;20041;-56
2023/07/23 11:21:58;;;;;;;0.00;0.00;;;20.40;99.90;;;;;;5037273;28;20533;-54
2023/07/23 11:24:25;;;;;;;0.00;0.00;;;20.50;99.90;;;;;;5035029;28;20032;-55
2023/07/23 11:26:51;;;;;;;0.00;0.00;;;20.60;99.90;;;;;;5041376;28;20492;-55
2023/07/23 11:29:18;;;;;;;0.52;0.52;;;20.50;99.90;;;;;;5035706;28;20507;-54
2023/07/23 11:31:45;;;;;;;0.00;0.00;;;20.50;99.90;;;;;;5039017;28;20032;-55
2023/07/23 11:34:12;;;;;;;0.00;0.00;;;20.60;99.90;;;;;;5034145;28;20112;-56
2023/07/23 11:36:38;;;;;;;0.00;0.00;;;20.50;99.90;;;;;;5039936;28;20532;-56
2023/07/23 11:39:05;;;;;;;0.00;0.00;;;20.40;99.90;;;;;;5036611;28;20552;-56
2023/07/23 11:41:36;;;;;;;0.00;0.00;;;20.40;99.90;;;;;;5034548;28;20045;-57
2023/07/23 11:44:06;;;;;;;0.00;0.00;;;20.40;99.90;;;;;;5036855;28;20090;-55
2023/07/23 11:46:36;;;;;;;0.13;0.13;;;20.40;99.90;;;;;;5044879;28;20064;-55
2023/07/23 11:49:04;;;;;;;0.20;0.00;;;20.50;99.90;;;;;;5045482;28;20044;-55
2023/07/23 11:51:33;;;;;;;0.00;0.00;;;20.50;99.90;;;;;;5037844;28;20116;-54
2023/07/23 11:54:09;;;;;;;0.00;0.00;;;20.50;99.90;;;;;;5045010;28;20098;-55
2023/07/23 11:56:37;;;;;;;0.00;0.00;;;20.60;99.90;;;;;;5041289;28;20042;-53
2023/07/23 11:59:08;;;;;;;0.28;0.17;;;20.60;99.90;;;;;;5042333;28;20037;-55
2023/07/23 12:01:36;;;;;;;0.00;0.00;;;20.60;99.90;;;;;;5036649;28;20144;-50
2023/07/23 12:04:03;;;;;;;0.10;0.10;;;20.60;99.90;;;;;;5035324;28;20055;-52
2023/07/23 12:06:31;;;;;;;0.20;0.20;;;20.60;99.90;;;;;;5042887;28;20044;-56
2023/07/23 12:08:57;;;;;;;0.00;0.00;;;20.50;99.90;;;;;;5039391;28;20090;-55
2023/07/23 12:11:23;;;;;;;0.00;0.00;;;20.40;99.90;;;;;;5039405;28;20032;-53
2023/07/23 12:13:53;;;;;;;0.28;0.00;;;20.40;99.90;;;;;;5040631;28;20130;-55
2023/07/23 12:16:33;;;;;;;0.22;0.10;;;20.40;99.90;;;;;;5043866;28;20093;-55
2023/07/23 12:19:19;;;;;;;0.10;0.10;;;20.50;99.90;;;;;;5032146;28;20025;-54
2023/07/23 12:21:46;;;;;;;0.00;0.00;;;20.50;99.90;;;;;;5038879;28;20485;-63
2023/07/23 12:24:19;;;;;;;0.00;0.00;;;20.40;99.90;;;;;;5035793;28;20150;-55
2023/07/23 12:26:46;;;;;;;0.47;0.17;;;20.40;99.90;;;;;;5041043;28;20110;-54
2023/07/23 12:29:12;;;;;;;0.47;0.47;;;20.40;99.90;;;;;;5033563;28;20072;-56
2023/07/23 12:31:48;;;;;;;0.50;0.50;;;20.50;99.90;;;;;;5039851;28;20528;-55
2023/07/23 12:34:16;;;;;;;0.00;0.00;;;20.60;99.90;;;;;;5039945;28;20366;-55
2023/07/23 12:36:43;;;;;;;0.38;0.38;;;20.60;99.90;;;;;;5032826;28;20048;-52
2023/07/23 12:39:09;;;;;;;0.30;0.30;;;20.50;99.90;;;;;;5044662;28;20033;-54
2023/07/23 12:41:36;;;;;;;0.10;0.10;;;20.70;99.90;;;;;;5043820;28;20037;-52
2023/07/23 12:44:02;;;;;;;0.10;0.00;;;20.90;99.90;;;;;;5042264;28;20552;-53
2023/07/23 12:46:28;;;;;;;0.20;0.20;;;21.20;99.90;;;;;;5041976;28;20657;-56
2023/07/23 12:48:54;;;;;;;0.52;0.43;;;21.40;99.90;;;;;;5041339;28;20040;-55